sensor_id;sensor_type;location;lat;lon;timestamp;P1;durP1;ratioP1;P2;durP2;ratioP2
16906;SDS011;8570;52.380;4.654;2024-01-30T00:03:05;22.27;;;16.27;;
16906;SDS011;8570;52.380;4.654;2024-01-30T00:08:10;25.50;;;16.40;;
16906;SDS011;8570;52.380;4.654;2024-01-30T00:13:12;24.37;;;16.53;;
16906;SDS011;8570;52.380;4.654;2024-01-30T00:18:20;25.73;;;15.90;;
16906;SDS011;8570;52.380;4.654;2024-01-30T00:23:22;22.33;;;16.50;;
16906;SDS011;8570;52.380;4.654;2024-01-30T00:28:24;23.97;;;16.83;;
16906;SDS011;8570;52.380;4.654;2024-01-30T00:33:33;21.00;;;15.17;;
16906;SDS011;8570;52.380;4.654;2024-01-30T00:38:35;23.27;;;15.37;;
16906;SDS011;8570;52.380;4.654;2024-01-30T00:43:39;23.37;;;15.30;;
16906;SDS011;8570;52.380;4.654;2024-01-30T00:48:43;20.97;;;15.00;;
16906;SDS011;8570;52.380;4.654;2024-01-30T00:53:48;24.77;;;15.57;;
16906;SDS011;8570;52.380;4.654;2024-01-30T00:58:49;18.40;;;13.50;;
16906;SDS011;8570;52.380;4.654;2024-01-30T01:04:00;21.70;;;13.83;;
16906;SDS011;8570;52.380;4.654;2024-01-30T01:09:02;23.80;;;13.80;;
16906;SDS011;8570;52.380;4.654;2024-01-30T01:14:05;17.37;;;13.53;;
16906;SDS011;8570;52.380;4.654;2024-01-30T01:19:11;17.33;;;14.17;;
16906;SDS011;8570;52.380;4.654;2024-01-30T01:24:19;20.27;;;13.40;;
16906;SDS011;8570;52.380;4.654;2024-01-30T01:29:21;20.93;;;13.70;;
16906;SDS011;8570;52.380;4.654;2024-01-30T01:34:30;16.90;;;14.13;;
16906;SDS011;8570;52.380;4.654;2024-01-30T01:39:34;21.87;;;14.53;;
16906;SDS011;8570;52.380;4.654;2024-01-30T01:44:36;19.03;;;13.53;;
16906;SDS011;8570;52.380;4.654;2024-01-30T01:49:39;19.33;;;13.27;;
16906;SDS011;8570;52.380;4.654;2024-01-30T01:54:41;20.37;;;13.43;;
16906;SDS011;8570;52.380;4.654;2024-01-30T01:59:43;18.23;;;13.53;;
16906;SDS011;8570;52.380;4.654;2024-01-30T02:04:49;22.77;;;13.43;;
16906;SDS011;8570;52.380;4.654;2024-01-30T02:09:57;17.70;;;13.10;;
16906;SDS011;8570;52.380;4.654;2024-01-30T02:14:59;20.63;;;14.10;;
16906;SDS011;8570;52.380;4.654;2024-01-30T02:20:03;18.53;;;13.70;;
16906;SDS011;8570;52.380;4.654;2024-01-30T02:25:07;14.33;;;12.83;;
16906;SDS011;8570;52.380;4.654;2024-01-30T02:30:12;17.53;;;13.90;;
16906;SDS011;8570;52.380;4.654;2024-01-30T02:35:18;18.87;;;14.33;;
16906;SDS011;8570;52.380;4.654;2024-01-30T02:40:21;18.83;;;13.60;;
16906;SDS011;8570;52.380;4.654;2024-01-30T02:45:26;16.87;;;14.40;;
16906;SDS011;8570;52.380;4.654;2024-01-30T02:50:28;18.00;;;13.93;;
16906;SDS011;8570;52.380;4.654;2024-01-30T02:55:31;20.00;;;13.20;;
16906;SDS011;8570;52.380;4.654;2024-01-30T03:00:34;20.90;;;13.73;;
16906;SDS011;8570;52.380;4.654;2024-01-30T03:05:37;18.10;;;12.70;;
16906;SDS011;8570;52.380;4.654;2024-01-30T03:10:41;16.47;;;13.50;;
16906;SDS011;8570;52.380;4.654;2024-01-30T03:15:42;19.67;;;14.17;;
16906;SDS011;8570;52.380;4.654;2024-01-30T03:20:44;22.20;;;14.70;;
16906;SDS011;8570;52.380;4.654;2024-01-30T03:25:48;19.43;;;13.43;;
16906;SDS011;8570;52.380;4.654;2024-01-30T03:30:51;18.00;;;13.97;;
16906;SDS011;8570;52.380;4.654;2024-01-30T03:35:56;25.33;;;14.37;;
16906;SDS011;8570;52.380;4.654;2024-01-30T03:41:02;20.83;;;12.83;;
16906;SDS011;8570;52.380;4.654;2024-01-30T03:46:04;17.30;;;12.77;;
16906;SDS011;8570;52.380;4.654;2024-01-30T03:51:06;20.67;;;13.50;;
16906;SDS011;8570;52.380;4.654;2024-01-30T03:56:15;17.37;;;13.07;;
16906;SDS011;8570;52.380;4.654;2024-01-30T04:01:17;17.37;;;13.10;;
16906;SDS011;8570;52.380;4.654;2024-01-30T04:06:19;17.50;;;13.63;;
16906;SDS011;8570;52.380;4.654;2024-01-30T04:11:27;18.57;;;12.87;;
16906;SDS011;8570;52.380;4.654;2024-01-30T04:16:32;18.57;;;12.73;;
16906;SDS011;8570;52.380;4.654;2024-01-30T04:21:34;18.27;;;12.70;;
16906;SDS011;8570;52.380;4.654;2024-01-30T04:26:38;15.90;;;12.70;;
16906;SDS011;8570;52.380;4.654;2024-01-30T04:31:40;15.27;;;12.47;;
16906;SDS011;8570;52.380;4.654;2024-01-30T04:36:43;23.87;;;12.67;;
16906;SDS011;8570;52.380;4.654;2024-01-30T04:41:47;16.40;;;12.90;;
16906;SDS011;8570;52.380;4.654;2024-01-30T04:46:49;14.70;;;11.53;;
16906;SDS011;8570;52.380;4.654;2024-01-30T04:51:53;15.23;;;11.87;;
16906;SDS011;8570;52.380;4.654;2024-01-30T04:57:02;16.77;;;11.93;;
16906;SDS011;8570;52.380;4.654;2024-01-30T05:02:09;16.63;;;12.87;;
16906;SDS011;8570;52.380;4.654;2024-01-30T05:07:11;16.77;;;11.60;;
16906;SDS011;8570;52.380;4.654;2024-01-30T05:12:17;15.40;;;11.77;;
16906;SDS011;8570;52.380;4.654;2024-01-30T05:17:19;16.00;;;13.07;;
16906;SDS011;8570;52.380;4.654;2024-01-30T05:22:24;14.07;;;11.87;;
16906;SDS011;8570;52.380;4.654;2024-01-30T05:27:30;15.70;;;11.97;;
16906;SDS011;8570;52.380;4.654;2024-01-30T05:32:34;13.77;;;11.70;;
16906;SDS011;8570;52.380;4.654;2024-01-30T05:37:39;14.43;;;11.40;;
16906;SDS011;8570;52.380;4.654;2024-01-30T05:42:42;17.27;;;12.53;;
16906;SDS011;8570;52.380;4.654;2024-01-30T05:47:44;19.20;;;11.83;;
16906;SDS011;8570;52.380;4.654;2024-01-30T05:52:46;14.97;;;11.93;;
16906;SDS011;8570;52.380;4.654;2024-01-30T05:57:52;14.87;;;11.80;;
16906;SDS011;8570;52.380;4.654;2024-01-30T06:02:54;16.13;;;11.73;;
16906;SDS011;8570;52.380;4.654;2024-01-30T06:07:56;14.97;;;12.00;;
16906;SDS011;8570;52.380;4.654;2024-01-30T06:13:00;15.23;;;11.83;;
16906;SDS011;8570;52.380;4.654;2024-01-30T06:18:05;13.53;;;11.57;;
16906;SDS011;8570;52.380;4.654;2024-01-30T06:23:09;15.93;;;11.50;;
16906;SDS011;8570;52.380;4.654;2024-01-30T06:28:14;17.00;;;11.67;;
16906;SDS011;8570;52.380;4.654;2024-01-30T06:33:16;14.13;;;11.10;;
16906;SDS011;8570;52.380;4.654;2024-01-30T06:38:27;18.67;;;11.17;;
16906;SDS011;8570;52.380;4.654;2024-01-30T06:43:30;16.23;;;10.27;;
16906;SDS011;8570;52.380;4.654;2024-01-30T06:54:31;13.00;;;10.60;;
16906;SDS011;8570;52.380;4.654;2024-01-30T06:59:34;16.47;;;10.40;;
16906;SDS011;8570;52.380;4.654;2024-01-30T07:04:43;18.77;;;11.13;;
16906;SDS011;8570;52.380;4.654;2024-01-30T07:09:45;14.73;;;10.20;;
16906;SDS011;8570;52.380;4.654;2024-01-30T07:14:51;13.95;;;11.20;;
16906;SDS011;8570;52.380;4.654;2024-01-30T07:19:53;16.03;;;9.67;;
16906;SDS011;8570;52.380;4.654;2024-01-30T07:24:55;13.20;;;9.87;;
16906;SDS011;8570;52.380;4.654;2024-01-30T07:29:58;16.03;;;9.93;;
16906;SDS011;8570;52.380;4.654;2024-01-30T07:35:06;11.07;;;9.20;;
16906;SDS011;8570;52.380;4.654;2024-01-30T07:40:11;20.43;;;10.50;;
16906;SDS011;8570;52.380;4.654;2024-01-30T07:45:15;15.13;;;9.43;;
16906;SDS011;8570;52.380;4.654;2024-01-30T07:50:22;14.25;;;10.32;;
16906;SDS011;8570;52.380;4.654;2024-01-30T07:55:27;18.88;;;10.00;;
16906;SDS011;8570;52.380;4.654;2024-01-30T08:00:33;12.70;;;9.80;;
16906;SDS011;8570;52.380;4.654;2024-01-30T08:05:35;18.07;;;10.53;;
16906;SDS011;8570;52.380;4.654;2024-01-30T08:10:39;15.90;;;10.77;;
16906;SDS011;8570;52.380;4.654;2024-01-30T08:15:42;16.10;;;11.30;;
16906;SDS011;8570;52.380;4.654;2024-01-30T08:20:46;17.85;;;11.15;;
16906;SDS011;8570;52.380;4.654;2024-01-30T08:25:50;20.48;;;10.32;;
16906;SDS011;8570;52.380;4.654;2024-01-30T08:30:55;19.38;;;11.05;;
16906;SDS011;8570;52.380;4.654;2024-01-30T08:35:58;18.75;;;10.27;;
16906;SDS011;8570;52.380;4.654;2024-01-30T08:41:00;25.08;;;10.70;;
16906;SDS011;8570;52.380;4.654;2024-01-30T08:46:09;24.15;;;10.82;;
16906;SDS011;8570;52.380;4.654;2024-01-30T08:51:11;18.65;;;9.60;;
16906;SDS011;8570;52.380;4.654;2024-01-30T08:56:13;28.67;;;8.52;;
16906;SDS011;8570;52.380;4.654;2024-01-30T09:01:17;17.08;;;6.85;;
16906;SDS011;8570;52.380;4.654;2024-01-30T09:06:19;20.35;;;5.15;;
16906;SDS011;8570;52.380;4.654;2024-01-30T09:11:21;18.25;;;4.68;;
16906;SDS011;8570;52.380;4.654;2024-01-30T09:16:24;21.00;;;4.90;;
16906;SDS011;8570;52.380;4.654;2024-01-30T09:21:26;26.73;;;4.97;;
16906;SDS011;8570;52.380;4.654;2024-01-30T09:26:28;21.33;;;3.90;;
16906;SDS011;8570;52.380;4.654;2024-01-30T09:31:31;24.07;;;5.43;;
16906;SDS011;8570;52.380;4.654;2024-01-30T09:36:33;21.03;;;4.33;;
16906;SDS011;8570;52.380;4.654;2024-01-30T09:41:35;16.43;;;3.70;;
16906;SDS011;8570;52.380;4.654;2024-01-30T09:46:50;17.10;;;3.60;;
16906;SDS011;8570;52.380;4.654;2024-01-30T09:51:52;16.33;;;3.80;;
16906;SDS011;8570;52.380;4.654;2024-01-30T09:56:55;19.53;;;3.50;;
16906;SDS011;8570;52.380;4.654;2024-01-30T10:01:58;18.95;;;4.30;;
16906;SDS011;8570;52.380;4.654;2024-01-30T10:07:01;18.60;;;4.15;;
16906;SDS011;8570;52.380;4.654;2024-01-30T10:12:03;21.93;;;3.93;;
16906;SDS011;8570;52.380;4.654;2024-01-30T10:17:09;14.43;;;3.50;;
16906;SDS011;8570;52.380;4.654;2024-01-30T10:22:11;22.47;;;3.27;;
16906;SDS011;8570;52.380;4.654;2024-01-30T10:27:13;16.47;;;2.93;;
16906;SDS011;8570;52.380;4.654;2024-01-30T10:32:19;17.30;;;2.92;;
16906;SDS011;8570;52.380;4.654;2024-01-30T10:37:21;25.83;;;3.50;;
16906;SDS011;8570;52.380;4.654;2024-01-30T10:42:27;12.50;;;2.10;;
16906;SDS011;8570;52.380;4.654;2024-01-30T10:47:35;13.10;;;2.40;;
16906;SDS011;8570;52.380;4.654;2024-01-30T10:52:37;8.97;;;2.20;;
16906;SDS011;8570;52.380;4.654;2024-01-30T10:57:42;15.63;;;3.10;;
16906;SDS011;8570;52.380;4.654;2024-01-30T11:02:45;15.50;;;3.17;;
16906;SDS011;8570;52.380;4.654;2024-01-30T11:07:48;17.60;;;2.93;;
16906;SDS011;8570;52.380;4.654;2024-01-30T11:12:52;13.27;;;2.57;;
16906;SDS011;8570;52.380;4.654;2024-01-30T11:17:55;22.00;;;2.73;;
16906;SDS011;8570;52.380;4.654;2024-01-30T11:22:58;11.47;;;2.47;;
16906;SDS011;8570;52.380;4.654;2024-01-30T11:28:02;11.73;;;2.80;;
16906;SDS011;8570;52.380;4.654;2024-01-30T11:33:06;18.40;;;2.70;;
16906;SDS011;8570;52.380;4.654;2024-01-30T11:38:09;13.53;;;2.50;;
16906;SDS011;8570;52.380;4.654;2024-01-30T11:43:12;13.40;;;2.57;;
16906;SDS011;8570;52.380;4.654;2024-01-30T11:48:16;10.33;;;2.33;;
16906;SDS011;8570;52.380;4.654;2024-01-30T11:53:18;14.70;;;2.70;;
16906;SDS011;8570;52.380;4.654;2024-01-30T11:58:20;16.27;;;2.30;;
16906;SDS011;8570;52.380;4.654;2024-01-30T12:03:27;13.63;;;2.50;;
16906;SDS011;8570;52.380;4.654;2024-01-30T12:08:29;12.43;;;2.47;;
16906;SDS011;8570;52.380;4.654;2024-01-30T12:13:31;12.27;;;2.60;;
16906;SDS011;8570;52.380;4.654;2024-01-30T12:18:35;15.47;;;2.77;;
16906;SDS011;8570;52.380;4.654;2024-01-30T12:23:37;13.40;;;2.70;;
16906;SDS011;8570;52.380;4.654;2024-01-30T12:28:47;22.07;;;3.93;;
16906;SDS011;8570;52.380;4.654;2024-01-30T12:33:51;18.67;;;3.07;;
16906;SDS011;8570;52.380;4.654;2024-01-30T12:38:53;13.40;;;2.73;;
16906;SDS011;8570;52.380;4.654;2024-01-30T12:43:56;16.17;;;3.20;;
16906;SDS011;8570;52.380;4.654;2024-01-30T12:49:00;14.93;;;3.07;;
16906;SDS011;8570;52.380;4.654;2024-01-30T12:54:04;18.30;;;3.00;;
16906;SDS011;8570;52.380;4.654;2024-01-30T12:59:06;16.27;;;3.07;;
16906;SDS011;8570;52.380;4.654;2024-01-30T13:04:10;16.87;;;3.27;;
16906;SDS011;8570;52.380;4.654;2024-01-30T13:09:12;9.93;;;3.27;;
16906;SDS011;8570;52.380;4.654;2024-01-30T13:14:14;18.43;;;3.73;;
16906;SDS011;8570;52.380;4.654;2024-01-30T13:19:17;14.13;;;3.80;;
16906;SDS011;8570;52.380;4.654;2024-01-30T13:24:19;14.90;;;3.00;;
16906;SDS011;8570;52.380;4.654;2024-01-30T13:29:21;10.30;;;3.90;;
16906;SDS011;8570;52.380;4.654;2024-01-30T13:34:24;11.13;;;3.63;;
16906;SDS011;8570;52.380;4.654;2024-01-30T13:39:26;12.07;;;3.63;;
16906;SDS011;8570;52.380;4.654;2024-01-30T13:44:29;11.13;;;3.53;;
16906;SDS011;8570;52.380;4.654;2024-01-30T13:49:32;12.77;;;4.03;;
16906;SDS011;8570;52.380;4.654;2024-01-30T13:54:34;10.10;;;3.53;;
16906;SDS011;8570;52.380;4.654;2024-01-30T13:59:35;11.03;;;3.30;;
16906;SDS011;8570;52.380;4.654;2024-01-30T14:04:40;18.03;;;3.30;;
16906;SDS011;8570;52.380;4.654;2024-01-30T14:09:42;7.20;;;2.63;;
16906;SDS011;8570;52.380;4.654;2024-01-30T14:14:47;8.17;;;3.13;;
16906;SDS011;8570;52.380;4.654;2024-01-30T14:19:50;10.50;;;3.10;;
16906;SDS011;8570;52.380;4.654;2024-01-30T14:24:54;7.17;;;2.90;;
16906;SDS011;8570;52.380;4.654;2024-01-30T14:29:56;13.17;;;3.50;;
16906;SDS011;8570;52.380;4.654;2024-01-30T14:34:59;7.77;;;2.90;;
16906;SDS011;8570;52.380;4.654;2024-01-30T14:40:01;6.80;;;2.50;;
16906;SDS011;8570;52.380;4.654;2024-01-30T14:45:03;8.73;;;3.03;;
16906;SDS011;8570;52.380;4.654;2024-01-30T14:50:08;10.57;;;4.13;;
16906;SDS011;8570;52.380;4.654;2024-01-30T14:55:10;8.33;;;3.93;;
16906;SDS011;8570;52.380;4.654;2024-01-30T15:00:12;12.10;;;4.07;;
16906;SDS011;8570;52.380;4.654;2024-01-30T15:05:17;10.83;;;3.53;;
16906;SDS011;8570;52.380;4.654;2024-01-30T15:10:19;12.53;;;4.50;;
16906;SDS011;8570;52.380;4.654;2024-01-30T15:15:20;12.57;;;4.10;;
16906;SDS011;8570;52.380;4.654;2024-01-30T15:20:24;12.60;;;3.30;;
16906;SDS011;8570;52.380;4.654;2024-01-30T15:25:27;16.37;;;3.70;;
16906;SDS011;8570;52.380;4.654;2024-01-30T15:30:30;16.13;;;3.43;;
16906;SDS011;8570;52.380;4.654;2024-01-30T15:35:33;17.07;;;3.53;;
16906;SDS011;8570;52.380;4.654;2024-01-30T15:40:35;23.40;;;3.77;;
16906;SDS011;8570;52.380;4.654;2024-01-30T15:45:36;19.30;;;3.40;;
16906;SDS011;8570;52.380;4.654;2024-01-30T15:50:40;20.97;;;3.13;;
16906;SDS011;8570;52.380;4.654;2024-01-30T15:55:41;19.77;;;3.83;;
16906;SDS011;8570;52.380;4.654;2024-01-30T16:00:43;16.60;;;3.30;;
16906;SDS011;8570;52.380;4.654;2024-01-30T16:05:46;20.43;;;4.03;;
16906;SDS011;8570;52.380;4.654;2024-01-30T16:10:50;22.77;;;3.10;;
16906;SDS011;8570;52.380;4.654;2024-01-30T16:15:52;24.57;;;3.87;;
16906;SDS011;8570;52.380;4.654;2024-01-30T16:20:55;27.53;;;3.60;;
16906;SDS011;8570;52.380;4.654;2024-01-30T16:25:57;30.70;;;4.63;;
16906;SDS011;8570;52.380;4.654;2024-01-30T16:30:59;23.60;;;3.57;;
16906;SDS011;8570;52.380;4.654;2024-01-30T16:36:04;36.67;;;4.40;;
16906;SDS011;8570;52.380;4.654;2024-01-30T16:41:06;28.40;;;4.30;;
16906;SDS011;8570;52.380;4.654;2024-01-30T16:46:07;27.40;;;5.13;;
16906;SDS011;8570;52.380;4.654;2024-01-30T16:51:11;23.37;;;3.60;;
16906;SDS011;8570;52.380;4.654;2024-01-30T16:56:13;25.50;;;3.60;;
16906;SDS011;8570;52.380;4.654;2024-01-30T17:01:15;23.07;;;3.90;;
16906;SDS011;8570;52.380;4.654;2024-01-30T17:06:19;22.93;;;3.57;;
16906;SDS011;8570;52.380;4.654;2024-01-30T17:11:21;26.57;;;4.57;;
16906;SDS011;8570;52.380;4.654;2024-01-30T17:16:23;24.33;;;4.00;;
16906;SDS011;8570;52.380;4.654;2024-01-30T17:21:26;24.87;;;3.80;;
16906;SDS011;8570;52.380;4.654;2024-01-30T17:26:28;32.37;;;4.33;;
16906;SDS011;8570;52.380;4.654;2024-01-30T17:31:30;20.80;;;3.73;;
16906;SDS011;8570;52.380;4.654;2024-01-30T17:36:38;36.97;;;3.83;;
16906;SDS011;8570;52.380;4.654;2024-01-30T17:41:41;20.93;;;3.13;;
16906;SDS011;8570;52.380;4.654;2024-01-30T17:46:42;28.27;;;4.20;;
16906;SDS011;8570;52.380;4.654;2024-01-30T17:51:46;19.90;;;3.83;;
16906;SDS011;8570;52.380;4.654;2024-01-30T17:56:48;21.67;;;3.70;;
16906;SDS011;8570;52.380;4.654;2024-01-30T18:01:50;29.87;;;3.60;;
16906;SDS011;8570;52.380;4.654;2024-01-30T18:06:53;24.50;;;4.13;;
16906;SDS011;8570;52.380;4.654;2024-01-30T18:11:56;22.90;;;4.07;;
16906;SDS011;8570;52.380;4.654;2024-01-30T18:16:58;23.80;;;3.83;;
16906;SDS011;8570;52.380;4.654;2024-01-30T18:22:01;19.33;;;3.20;;
16906;SDS011;8570;52.380;4.654;2024-01-30T18:27:03;20.77;;;3.30;;
16906;SDS011;8570;52.380;4.654;2024-01-30T18:32:09;20.13;;;3.13;;
16906;SDS011;8570;52.380;4.654;2024-01-30T18:37:12;16.87;;;3.47;;
16906;SDS011;8570;52.380;4.654;2024-01-30T18:42:14;22.90;;;3.20;;
16906;SDS011;8570;52.380;4.654;2024-01-30T18:47:18;16.13;;;2.43;;
16906;SDS011;8570;52.380;4.654;2024-01-30T18:52:22;11.87;;;2.57;;
16906;SDS011;8570;52.380;4.654;2024-01-30T18:57:24;16.73;;;3.10;;
16906;SDS011;8570;52.380;4.654;2024-01-30T19:02:26;14.30;;;2.20;;
16906;SDS011;8570;52.380;4.654;2024-01-30T19:07:29;6.90;;;2.13;;
16906;SDS011;8570;52.380;4.654;2024-01-30T19:12:33;8.43;;;2.20;;
16906;SDS011;8570;52.380;4.654;2024-01-30T19:17:37;12.77;;;2.37;;
16906;SDS011;8570;52.380;4.654;2024-01-30T19:22:41;10.37;;;1.80;;
16906;SDS011;8570;52.380;4.654;2024-01-30T19:27:43;12.00;;;1.73;;
16906;SDS011;8570;52.380;4.654;2024-01-30T19:32:45;6.87;;;1.60;;
16906;SDS011;8570;52.380;4.654;2024-01-30T19:37:48;10.53;;;1.80;;
16906;SDS011;8570;52.380;4.654;2024-01-30T19:42:50;11.27;;;2.27;;
16906;SDS011;8570;52.380;4.654;2024-01-30T19:47:52;10.20;;;2.20;;
16906;SDS011;8570;52.380;4.654;2024-01-30T19:52:55;14.57;;;2.23;;
16906;SDS011;8570;52.380;4.654;2024-01-30T19:57:57;8.50;;;1.90;;
16906;SDS011;8570;52.380;4.654;2024-01-30T20:02:59;5.27;;;1.20;;
16906;SDS011;8570;52.380;4.654;2024-01-30T20:08:02;11.90;;;1.67;;
16906;SDS011;8570;52.380;4.654;2024-01-30T20:13:04;8.33;;;1.37;;
16906;SDS011;8570;52.380;4.654;2024-01-30T20:18:07;5.23;;;1.37;;
16906;SDS011;8570;52.380;4.654;2024-01-30T20:23:11;4.93;;;1.40;;
16906;SDS011;8570;52.380;4.654;2024-01-30T20:28:13;8.43;;;1.43;;
16906;SDS011;8570;52.380;4.654;2024-01-30T20:33:18;7.67;;;1.73;;
16906;SDS011;8570;52.380;4.654;2024-01-30T20:38:22;13.37;;;1.70;;
16906;SDS011;8570;52.380;4.654;2024-01-30T20:43:26;9.43;;;1.97;;
16906;SDS011;8570;52.380;4.654;2024-01-30T20:48:28;9.53;;;2.00;;
16906;SDS011;8570;52.380;4.654;2024-01-30T20:53:43;5.03;;;1.50;;
16906;SDS011;8570;52.380;4.654;2024-01-30T20:58:58;5.33;;;1.00;;
16906;SDS011;8570;52.380;4.654;2024-01-30T21:04:03;7.93;;;1.33;;
16906;SDS011;8570;52.380;4.654;2024-01-30T21:09:15;3.27;;;1.00;;
16906;SDS011;8570;52.380;4.654;2024-01-30T21:14:20;6.87;;;1.97;;
16906;SDS011;8570;52.380;4.654;2024-01-30T21:19:22;5.57;;;1.97;;
16906;SDS011;8570;52.380;4.654;2024-01-30T21:24:26;9.60;;;2.13;;
16906;SDS011;8570;52.380;4.654;2024-01-30T21:29:27;6.33;;;2.20;;
16906;SDS011;8570;52.380;4.654;2024-01-30T21:34:29;7.97;;;1.93;;
16906;SDS011;8570;52.380;4.654;2024-01-30T21:39:33;9.33;;;2.20;;
16906;SDS011;8570;52.380;4.654;2024-01-30T21:44:34;9.33;;;3.03;;
16906;SDS011;8570;52.380;4.654;2024-01-30T21:49:39;10.87;;;2.60;;
16906;SDS011;8570;52.380;4.654;2024-01-30T21:54:42;11.77;;;2.80;;
16906;SDS011;8570;52.380;4.654;2024-01-30T21:59:46;14.43;;;2.60;;
16906;SDS011;8570;52.380;4.654;2024-01-30T22:04:48;10.10;;;2.57;;
16906;SDS011;8570;52.380;4.654;2024-01-30T22:09:52;14.83;;;2.67;;
16906;SDS011;8570;52.380;4.654;2024-01-30T22:14:54;9.57;;;3.00;;
16906;SDS011;8570;52.380;4.654;2024-01-30T22:19:57;18.20;;;3.13;;
16906;SDS011;8570;52.380;4.654;2024-01-30T22:25:00;13.23;;;2.40;;
16906;SDS011;8570;52.380;4.654;2024-01-30T22:30:02;9.17;;;2.60;;
16906;SDS011;8570;52.380;4.654;2024-01-30T22:35:08;8.67;;;2.80;;
16906;SDS011;8570;52.380;4.654;2024-01-30T22:40:14;12.60;;;3.17;;
16906;SDS011;8570;52.380;4.654;2024-01-30T22:45:18;12.30;;;2.53;;
16906;SDS011;8570;52.380;4.654;2024-01-30T22:50:22;13.10;;;3.80;;
16906;SDS011;8570;52.380;4.654;2024-01-30T22:55:27;10.87;;;2.77;;
16906;SDS011;8570;52.380;4.654;2024-01-30T23:00:31;12.70;;;2.93;;
16906;SDS011;8570;52.380;4.654;2024-01-30T23:05:33;13.33;;;2.33;;
16906;SDS011;8570;52.380;4.654;2024-01-30T23:10:37;12.77;;;2.70;;
16906;SDS011;8570;52.380;4.654;2024-01-30T23:15:39;8.53;;;2.00;;
16906;SDS011;8570;52.380;4.654;2024-01-30T23:20:41;6.83;;;1.60;;
16906;SDS011;8570;52.380;4.654;2024-01-30T23:31:15;11.03;;;1.70;;
16906;SDS011;8570;52.380;4.654;2024-01-30T23:36:17;9.50;;;1.27;;
16906;SDS011;8570;52.380;4.654;2024-01-30T23:41:20;7.37;;;1.67;;
16906;SDS011;8570;52.380;4.654;2024-01-30T23:46:22;5.13;;;1.50;;
16906;SDS011;8570;52.380;4.654;2024-01-30T23:51:28;7.07;;;1.90;;
16906;SDS011;8570;52.380;4.654;2024-01-30T23:56:37;9.83;;;1.47;;
